Terminal Aerodrome Forecast
Issued by NWS Jackson, KY

Home | Current Version | Previous Version | Text Only | Print | Product List | Glossary On
Versions: 1 2 3 4 5 6 7 8 9 10 11 12
000
FTUS43 KJKL 212300
TAFJKL
TAF
KJKL 212323Z 2200/2224 27006KT P6SM BKN100
     FM220400 24003KT P6SM VCSH BKN060
     FM221000 VRB04KT 4SM -SHRA BR VCTS BKN025CB OVC050
     FM221400 29008KT 4SM -SHRA VCTS OVC015CB
     FM221800 29010G15KT P6SM VCSH OVC035=

USA.gov is the U.S. government's official web portal to all federal, state and local government web resources and services.